sensor_id;sensor_type;location;lat;lon;timestamp;pressure;altitude;pressure_sealevel;temperature;humidity
63097;BME280;49185;42.320;23.198;2023-03-14T00:02:16;95108.06;;;-2.24;82.05
63097;BME280;49185;42.320;23.198;2023-03-14T00:04:42;95114.25;;;-2.33;82.21
63097;BME280;49185;42.320;23.198;2023-03-14T00:07:07;95111.97;;;-2.36;83.20
63097;BME280;49185;42.320;23.198;2023-03-14T00:09:35;95104.97;;;-2.27;84.04
63097;BME280;49185;42.320;23.198;2023-03-14T00:12:01;95099.28;;;-2.15;84.61
63097;BME280;49185;42.320;23.198;2023-03-14T00:14:26;95092.78;;;-2.19;84.67
63097;BME280;49185;42.320;23.198;2023-03-14T00:16:52;95099.94;;;-2.21;84.89
63097;BME280;49185;42.320;23.198;2023-03-14T00:19:17;95092.94;;;-2.20;85.36
63097;BME280;49185;42.320;23.198;2023-03-14T00:21:43;95090.66;;;-2.15;85.17
63097;BME280;49185;42.320;23.198;2023-03-14T00:24:08;95076.03;;;-1.59;82.51
63097;BME280;49185;42.320;23.198;2023-03-14T00:26:34;95072.41;;;-1.41;81.02
63097;BME280;49185;42.320;23.198;2023-03-14T00:28:59;95063.59;;;-1.32;80.38
63097;BME280;49185;42.320;23.198;2023-03-14T00:31:25;95051.66;;;-1.26;79.65
63097;BME280;49185;42.320;23.198;2023-03-14T00:33:52;95051.19;;;-0.90;77.48
63097;BME280;49185;42.320;23.198;2023-03-14T00:36:18;95043.81;;;-1.26;77.55
63097;BME280;49185;42.320;23.198;2023-03-14T00:38:47;95044.72;;;-1.50;78.96
63097;BME280;49185;42.320;23.198;2023-03-14T00:41:17;95031.63;;;-1.42;78.78
63097;BME280;49185;42.320;23.198;2023-03-14T00:43:43;95034.44;;;-1.60;78.99
63097;BME280;49185;42.320;23.198;2023-03-14T00:46:09;95029.34;;;-1.37;77.99
63097;BME280;49185;42.320;23.198;2023-03-14T00:48:35;95023.53;;;-1.64;78.16
63097;BME280;49185;42.320;23.198;2023-03-14T00:51:03;95020.56;;;-1.53;78.81
63097;BME280;49185;42.320;23.198;2023-03-14T00:53:28;95030.16;;;-1.37;78.28
63097;BME280;49185;42.320;23.198;2023-03-14T00:55:54;95022.53;;;-1.55;77.65
63097;BME280;49185;42.320;23.198;2023-03-14T00:58:19;95019.00;;;-1.14;77.34
63097;BME280;49185;42.320;23.198;2023-03-14T01:00:45;95022.13;;;-0.79;74.10
63097;BME280;49185;42.320;23.198;2023-03-14T01:03:12;95013.97;;;-1.24;75.92
63097;BME280;49185;42.320;23.198;2023-03-14T01:05:38;95017.97;;;-1.61;78.18
63097;BME280;49185;42.320;23.198;2023-03-14T01:08:04;95020.47;;;-1.84;79.71
63097;BME280;49185;42.320;23.198;2023-03-14T01:10:30;95020.69;;;-0.90;76.28
63097;BME280;49185;42.320;23.198;2023-03-14T01:12:56;95018.81;;;-1.04;77.34
63097;BME280;49185;42.320;23.198;2023-03-14T01:15:21;95015.38;;;-0.73;75.38
63097;BME280;49185;42.320;23.198;2023-03-14T01:17:47;95024.84;;;-2.01;78.81
63097;BME280;49185;42.320;23.198;2023-03-14T01:20:14;95025.97;;;-2.44;81.69
63097;BME280;49185;42.320;23.198;2023-03-14T01:22:40;95026.47;;;-2.16;80.21
63097;BME280;49185;42.320;23.198;2023-03-14T01:25:08;95018.50;;;-2.47;82.34
63097;BME280;49185;42.320;23.198;2023-03-14T01:27:34;95015.88;;;-1.65;79.47
63097;BME280;49185;42.320;23.198;2023-03-14T01:30:00;95019.63;;;-2.09;80.21
63097;BME280;49185;42.320;23.198;2023-03-14T01:32:25;95008.38;;;-2.51;82.11
63097;BME280;49185;42.320;23.198;2023-03-14T01:34:51;95015.03;;;-2.64;83.92
63097;BME280;49185;42.320;23.198;2023-03-14T01:37:17;95012.13;;;-2.61;84.03
63097;BME280;49185;42.320;23.198;2023-03-14T01:39:42;95010.84;;;-1.92;81.64
63097;BME280;49185;42.320;23.198;2023-03-14T01:42:08;95011.81;;;-1.68;79.80
63097;BME280;49185;42.320;23.198;2023-03-14T01:44:53;95005.91;;;-1.54;78.83
63097;BME280;49185;42.320;23.198;2023-03-14T01:47:19;94994.53;;;-1.85;80.37
63097;BME280;49185;42.320;23.198;2023-03-14T01:49:47;95002.19;;;-2.00;80.92
63097;BME280;49185;42.320;23.198;2023-03-14T01:52:28;95000.25;;;-2.15;82.29
63097;BME280;49185;42.320;23.198;2023-03-14T01:55:09;94998.16;;;-1.95;80.76
63097;BME280;49185;42.320;23.198;2023-03-14T01:57:40;94992.75;;;-2.34;81.98
63097;BME280;49185;42.320;23.198;2023-03-14T02:00:12;94989.34;;;-2.43;82.76
63097;BME280;49185;42.320;23.198;2023-03-14T02:02:40;94994.72;;;-2.53;83.54
63097;BME280;49185;42.320;23.198;2023-03-14T02:05:06;94997.28;;;-2.61;83.38
63097;BME280;49185;42.320;23.198;2023-03-14T02:07:43;94995.50;;;-2.60;84.17
63097;BME280;49185;42.320;23.198;2023-03-14T02:10:11;94999.13;;;-2.53;83.84
63097;BME280;49185;42.320;23.198;2023-03-14T02:12:37;95000.41;;;-2.65;83.86
63097;BME280;49185;42.320;23.198;2023-03-14T02:15:04;94992.09;;;-2.69;84.68
63097;BME280;49185;42.320;23.198;2023-03-14T02:17:30;94989.78;;;-2.80;85.16
63097;BME280;49185;42.320;23.198;2023-03-14T02:20:44;94993.19;;;-2.80;85.21
63097;BME280;49185;42.320;23.198;2023-03-14T02:23:12;94999.78;;;-2.35;82.97
63097;BME280;49185;42.320;23.198;2023-03-14T02:26:08;94996.47;;;-2.61;84.00
63097;BME280;49185;42.320;23.198;2023-03-14T02:28:34;94993.72;;;-2.52;84.17
63097;BME280;49185;42.320;23.198;2023-03-14T02:31:00;94977.63;;;-2.31;82.38
63097;BME280;49185;42.320;23.198;2023-03-14T02:33:26;94980.22;;;-2.06;81.89
63097;BME280;49185;42.320;23.198;2023-03-14T02:35:59;94979.09;;;-2.12;81.12
63097;BME280;49185;42.320;23.198;2023-03-14T02:38:36;94973.38;;;-1.99;80.37
63097;BME280;49185;42.320;23.198;2023-03-14T02:41:03;94976.97;;;-2.16;80.54
63097;BME280;49185;42.320;23.198;2023-03-14T02:43:29;94964.75;;;-1.91;79.77
63097;BME280;49185;42.320;23.198;2023-03-14T02:45:55;94974.34;;;-1.92;79.76
63097;BME280;49185;42.320;23.198;2023-03-14T02:48:30;94963.28;;;-2.10;80.11
63097;BME280;49185;42.320;23.198;2023-03-14T02:50:59;94963.44;;;-2.53;81.05
63097;BME280;49185;42.320;23.198;2023-03-14T02:53:27;94959.38;;;-2.63;81.54
63097;BME280;49185;42.320;23.198;2023-03-14T02:55:53;94950.59;;;-2.46;81.44
63097;BME280;49185;42.320;23.198;2023-03-14T02:58:19;94951.25;;;-2.52;81.72
63097;BME280;49185;42.320;23.198;2023-03-14T03:00:45;94956.44;;;-2.69;82.33
63097;BME280;49185;42.320;23.198;2023-03-14T03:03:10;94961.66;;;-2.69;82.71
63097;BME280;49185;42.320;23.198;2023-03-14T03:05:36;94966.53;;;-2.33;81.73
63097;BME280;49185;42.320;23.198;2023-03-14T03:08:03;94974.19;;;-2.15;80.36
63097;BME280;49185;42.320;23.198;2023-03-14T03:10:29;94982.50;;;-2.03;80.03
63097;BME280;49185;42.320;23.198;2023-03-14T03:12:54;94982.03;;;-2.06;80.13
63097;BME280;49185;42.320;23.198;2023-03-14T03:15:20;94978.09;;;-2.60;81.38
63097;BME280;49185;42.320;23.198;2023-03-14T03:17:45;94984.66;;;-3.07;83.10
63097;BME280;49185;42.320;23.198;2023-03-14T03:20:11;94990.75;;;-2.81;82.88
63097;BME280;49185;42.320;23.198;2023-03-14T03:22:36;94992.88;;;-2.85;82.98
63097;BME280;49185;42.320;23.198;2023-03-14T03:25:04;95001.25;;;-2.99;83.60
63097;BME280;49185;42.320;23.198;2023-03-14T03:27:31;95001.72;;;-2.53;82.83
63097;BME280;49185;42.320;23.198;2023-03-14T03:29:57;94999.59;;;-2.17;80.54
63097;BME280;49185;42.320;23.198;2023-03-14T03:32:23;94997.72;;;-2.82;82.50
63097;BME280;49185;42.320;23.198;2023-03-14T03:34:48;95004.56;;;-3.32;84.32
63097;BME280;49185;42.320;23.198;2023-03-14T03:37:14;95007.81;;;-2.87;84.31
63097;BME280;49185;42.320;23.198;2023-03-14T03:39:39;95005.91;;;-3.19;84.29
63097;BME280;49185;42.320;23.198;2023-03-14T03:42:04;95009.41;;;-3.02;84.39
63097;BME280;49185;42.320;23.198;2023-03-14T03:44:30;95001.38;;;-3.17;84.59
63097;BME280;49185;42.320;23.198;2023-03-14T03:46:55;95004.28;;;-2.70;83.64
63097;BME280;49185;42.320;23.198;2023-03-14T03:49:21;95000.38;;;-2.74;83.08
63097;BME280;49185;42.320;23.198;2023-03-14T03:51:46;95004.63;;;-3.15;84.42
63097;BME280;49185;42.320;23.198;2023-03-14T03:54:11;95018.81;;;-3.44;86.32
63097;BME280;49185;42.320;23.198;2023-03-14T03:56:37;95013.44;;;-3.42;87.24
63097;BME280;49185;42.320;23.198;2023-03-14T03:59:02;95013.81;;;-3.37;87.32
63097;BME280;49185;42.320;23.198;2023-03-14T04:01:30;95014.19;;;-3.24;87.25
63097;BME280;49185;42.320;23.198;2023-03-14T04:03:55;95017.38;;;-3.38;87.48
63097;BME280;49185;42.320;23.198;2023-03-14T04:06:21;95022.22;;;-3.44;87.34
63097;BME280;49185;42.320;23.198;2023-03-14T04:08:46;95019.00;;;-3.37;87.56
63097;BME280;49185;42.320;23.198;2023-03-14T04:11:12;95030.69;;;-3.07;87.02
63097;BME280;49185;42.320;23.198;2023-03-14T04:13:37;95015.34;;;-2.68;84.16
63097;BME280;49185;42.320;23.198;2023-03-14T04:16:03;95019.16;;;-2.96;84.19
63097;BME280;49185;42.320;23.198;2023-03-14T04:18:28;95007.88;;;-2.54;82.43
63097;BME280;49185;42.320;23.198;2023-03-14T04:20:55;95005.19;;;-2.95;82.68
63097;BME280;49185;42.320;23.198;2023-03-14T04:23:21;94999.50;;;-2.91;83.13
63097;BME280;49185;42.320;23.198;2023-03-14T04:25:47;94996.94;;;-2.66;82.07
63097;BME280;49185;42.320;23.198;2023-03-14T04:28:13;94999.59;;;-3.17;83.75
63097;BME280;49185;42.320;23.198;2023-03-14T04:30:38;94982.13;;;-2.74;82.49
63097;BME280;49185;42.320;23.198;2023-03-14T04:33:03;94982.41;;;-2.93;82.48
63097;BME280;49185;42.320;23.198;2023-03-14T04:35:32;94978.91;;;-3.27;84.09
63097;BME280;49185;42.320;23.198;2023-03-14T04:37:58;94969.13;;;-3.25;85.25
63097;BME280;49185;42.320;23.198;2023-03-14T04:40:23;94968.69;;;-3.12;84.22
63097;BME280;49185;42.320;23.198;2023-03-14T04:42:49;94966.44;;;-3.07;84.25
63097;BME280;49185;42.320;23.198;2023-03-14T04:45:14;94963.34;;;-3.10;84.46
63097;BME280;49185;42.320;23.198;2023-03-14T04:47:40;94951.13;;;-3.18;84.99
63097;BME280;49185;42.320;23.198;2023-03-14T04:50:05;94952.63;;;-3.07;85.66
63097;BME280;49185;42.320;23.198;2023-03-14T04:52:31;94960.72;;;-3.18;85.53
63097;BME280;49185;42.320;23.198;2023-03-14T04:54:56;94953.53;;;-2.65;84.17
63097;BME280;49185;42.320;23.198;2023-03-14T04:57:22;94952.34;;;-2.71;83.15
63097;BME280;49185;42.320;23.198;2023-03-14T04:59:47;94946.13;;;-2.95;84.60
63097;BME280;49185;42.320;23.198;2023-03-14T05:02:12;94952.91;;;-3.10;85.20
63097;BME280;49185;42.320;23.198;2023-03-14T05:04:38;94948.69;;;-3.19;86.88
63097;BME280;49185;42.320;23.198;2023-03-14T05:07:03;94941.91;;;-3.04;86.41
63097;BME280;49185;42.320;23.198;2023-03-14T05:09:29;94943.84;;;-3.06;86.63
63097;BME280;49185;42.320;23.198;2023-03-14T05:11:56;94950.34;;;-3.02;86.39
63097;BME280;49185;42.320;23.198;2023-03-14T05:14:22;94941.47;;;-2.58;85.73
63097;BME280;49185;42.320;23.198;2023-03-14T05:16:47;94941.00;;;-2.62;84.38
63097;BME280;49185;42.320;23.198;2023-03-14T05:19:13;94947.47;;;-2.82;84.48
63097;BME280;49185;42.320;23.198;2023-03-14T05:21:38;94953.94;;;-2.95;85.13
63097;BME280;49185;42.320;23.198;2023-03-14T05:24:04;94956.28;;;-2.67;84.43
63097;BME280;49185;42.320;23.198;2023-03-14T05:26:29;94948.94;;;-2.72;83.76
63097;BME280;49185;42.320;23.198;2023-03-14T05:28:55;94933.81;;;-2.27;83.68
63097;BME280;49185;42.320;23.198;2023-03-14T05:31:21;94932.72;;;-1.60;80.30
63097;BME280;49185;42.320;23.198;2023-03-14T05:33:46;94920.63;;;-0.90;76.51
63097;BME280;49185;42.320;23.198;2023-03-14T05:36:12;94925.44;;;-0.48;74.20
63097;BME280;49185;42.320;23.198;2023-03-14T05:38:37;94931.72;;;-1.20;76.84
63097;BME280;49185;42.320;23.198;2023-03-14T05:41:03;94934.16;;;-2.30;80.79
63097;BME280;49185;42.320;23.198;2023-03-14T05:43:28;94933.00;;;-2.27;81.60
63097;BME280;49185;42.320;23.198;2023-03-14T05:45:54;94930.22;;;-2.10;81.10
63097;BME280;49185;42.320;23.198;2023-03-14T05:48:19;94932.00;;;-2.02;81.61
63097;BME280;49185;42.320;23.198;2023-03-14T05:50:45;94927.50;;;-1.68;80.18
63097;BME280;49185;42.320;23.198;2023-03-14T05:53:10;94931.84;;;-1.44;80.45
63097;BME280;49185;42.320;23.198;2023-03-14T05:55:36;94926.13;;;-1.40;80.36
63097;BME280;49185;42.320;23.198;2023-03-14T05:58:01;94927.28;;;-0.80;79.07
63097;BME280;49185;42.320;23.198;2023-03-14T06:00:26;94920.34;;;0.42;73.08
63097;BME280;49185;42.320;23.198;2023-03-14T06:02:52;94914.28;;;1.94;67.72
63097;BME280;49185;42.320;23.198;2023-03-14T06:05:17;94912.19;;;2.80;63.46
63097;BME280;49185;42.320;23.198;2023-03-14T06:07:43;94904.50;;;3.54;62.63
63097;BME280;49185;42.320;23.198;2023-03-14T06:10:08;94899.69;;;4.31;58.80
63097;BME280;49185;42.320;23.198;2023-03-14T06:12:34;94905.31;;;5.13;57.22
63097;BME280;49185;42.320;23.198;2023-03-14T06:14:59;94908.97;;;6.76;50.89
63097;BME280;49185;42.320;23.198;2023-03-14T06:17:25;94911.44;;;7.27;48.16
63097;BME280;49185;42.320;23.198;2023-03-14T06:19:50;94904.84;;;7.17;47.90
63097;BME280;49185;42.320;23.198;2023-03-14T06:22:16;94904.59;;;7.37;47.01
63097;BME280;49185;42.320;23.198;2023-03-14T06:24:41;94909.16;;;7.30;47.72
63097;BME280;49185;42.320;23.198;2023-03-14T06:27:07;94914.25;;;6.39;49.67
63097;BME280;49185;42.320;23.198;2023-03-14T06:29:32;94918.75;;;5.75;51.89
63097;BME280;49185;42.320;23.198;2023-03-14T06:31:57;94917.94;;;5.43;54.18
63097;BME280;49185;42.320;23.198;2023-03-14T06:34:23;94918.53;;;5.45;54.07
63097;BME280;49185;42.320;23.198;2023-03-14T06:36:48;94920.81;;;6.74;50.71
63097;BME280;49185;42.320;23.198;2023-03-14T06:39:14;94923.56;;;6.42;51.99
63097;BME280;49185;42.320;23.198;2023-03-14T06:41:39;94923.50;;;6.49;51.66
63097;BME280;49185;42.320;23.198;2023-03-14T06:44:05;94929.56;;;6.93;50.75
63097;BME280;49185;42.320;23.198;2023-03-14T06:46:31;94921.03;;;6.91;50.16
63097;BME280;49185;42.320;23.198;2023-03-14T06:48:56;94934.38;;;6.59;50.85
63097;BME280;49185;42.320;23.198;2023-03-14T06:51:22;94929.47;;;6.81;48.37
63097;BME280;49185;42.320;23.198;2023-03-14T06:53:48;94927.22;;;6.16;51.74
63097;BME280;49185;42.320;23.198;2023-03-14T06:56:13;94921.50;;;6.19;51.27
63097;BME280;49185;42.320;23.198;2023-03-14T06:58:39;94910.50;;;6.65;52.97
63097;BME280;49185;42.320;23.198;2023-03-14T07:01:04;94913.88;;;6.54;52.46
63097;BME280;49185;42.320;23.198;2023-03-14T07:03:30;94909.38;;;6.80;50.96
63097;BME280;49185;42.320;23.198;2023-03-14T07:05:55;94911.25;;;6.54;51.26
63097;BME280;49185;42.320;23.198;2023-03-14T07:08:21;94905.31;;;6.96;49.62
63097;BME280;49185;42.320;23.198;2023-03-14T07:10:46;94900.59;;;6.79;49.57
63097;BME280;49185;42.320;23.198;2023-03-14T07:13:12;94893.69;;;6.60;50.23
63097;BME280;49185;42.320;23.198;2023-03-14T07:15:37;94878.63;;;7.16;48.56
63097;BME280;49185;42.320;23.198;2023-03-14T07:18:02;94870.59;;;8.18;46.52
63097;BME280;49185;42.320;23.198;2023-03-14T07:20:28;94866.63;;;8.92;44.29
63097;BME280;49185;42.320;23.198;2023-03-14T07:22:53;94865.94;;;8.97;43.87
63097;BME280;49185;42.320;23.198;2023-03-14T07:25:19;94852.91;;;9.24;43.16
63097;BME280;49185;42.320;23.198;2023-03-14T07:27:45;94862.63;;;9.47;43.28
63097;BME280;49185;42.320;23.198;2023-03-14T07:30:11;94856.66;;;8.59;45.86
63097;BME280;49185;42.320;23.198;2023-03-14T07:32:37;94854.25;;;8.57;45.16
63097;BME280;49185;42.320;23.198;2023-03-14T07:35:02;94857.72;;;10.18;41.25
63097;BME280;49185;42.320;23.198;2023-03-14T07:37:28;94844.06;;;10.66;39.08
63097;BME280;49185;42.320;23.198;2023-03-14T07:39:53;94852.47;;;9.73;38.88
63097;BME280;49185;42.320;23.198;2023-03-14T07:42:19;94839.25;;;9.61;41.61
63097;BME280;49185;42.320;23.198;2023-03-14T07:44:44;94843.03;;;10.89;39.10
63097;BME280;49185;42.320;23.198;2023-03-14T07:47:10;94835.44;;;10.58;40.81
63097;BME280;49185;42.320;23.198;2023-03-14T07:49:35;94834.13;;;8.85;42.05
63097;BME280;49185;42.320;23.198;2023-03-14T07:52:01;94827.31;;;10.48;40.45
63097;BME280;49185;42.320;23.198;2023-03-14T07:54:26;94832.00;;;9.27;42.92
63097;BME280;49185;42.320;23.198;2023-03-14T07:56:52;94825.16;;;9.77;39.98
63097;BME280;49185;42.320;23.198;2023-03-14T07:59:18;94823.47;;;10.39;40.10
63097;BME280;49185;42.320;23.198;2023-03-14T08:01:43;94826.44;;;9.41;40.47
63097;BME280;49185;42.320;23.198;2023-03-14T08:04:10;94825.13;;;9.72;40.80
63097;BME280;49185;42.320;23.198;2023-03-14T08:06:36;94821.63;;;10.05;42.26
63097;BME280;49185;42.320;23.198;2023-03-14T08:09:02;94810.09;;;12.46;37.68
63097;BME280;49185;42.320;23.198;2023-03-14T08:11:27;94809.56;;;11.42;38.72
63097;BME280;49185;42.320;23.198;2023-03-14T08:13:53;94820.94;;;10.66;40.58
63097;BME280;49185;42.320;23.198;2023-03-14T08:16:19;94825.03;;;9.38;43.67
63097;BME280;49185;42.320;23.198;2023-03-14T08:18:45;94823.47;;;10.78;41.52
63097;BME280;49185;42.320;23.198;2023-03-14T08:21:13;94817.50;;;12.34;38.19
63097;BME280;49185;42.320;23.198;2023-03-14T08:23:38;94821.03;;;12.40;37.33
63097;BME280;49185;42.320;23.198;2023-03-14T08:26:04;94815.16;;;11.73;39.28
63097;BME280;49185;42.320;23.198;2023-03-14T08:28:30;94815.94;;;12.38;38.57
63097;BME280;49185;42.320;23.198;2023-03-14T08:30:56;94820.69;;;11.66;40.35
63097;BME280;49185;42.320;23.198;2023-03-14T08:33:22;94818.88;;;11.17;40.69
63097;BME280;49185;42.320;23.198;2023-03-14T08:35:48;94808.47;;;11.43;39.83
63097;BME280;49185;42.320;23.198;2023-03-14T08:38:13;94822.28;;;10.47;42.96
63097;BME280;49185;42.320;23.198;2023-03-14T08:40:38;94800.97;;;12.37;40.10
63097;BME280;49185;42.320;23.198;2023-03-14T08:43:04;94803.25;;;12.13;40.65
63097;BME280;49185;42.320;23.198;2023-03-14T08:45:29;94808.28;;;11.00;42.99
63097;BME280;49185;42.320;23.198;2023-03-14T08:47:55;94798.53;;;10.84;43.13
63097;BME280;49185;42.320;23.198;2023-03-14T08:50:20;94797.66;;;10.78;43.63
63097;BME280;49185;42.320;23.198;2023-03-14T08:52:45;94803.03;;;11.33;41.18
63097;BME280;49185;42.320;23.198;2023-03-14T08:55:11;94796.56;;;11.51;40.45
63097;BME280;49185;42.320;23.198;2023-03-14T08:57:37;94792.94;;;13.58;37.98
63097;BME280;49185;42.320;23.198;2023-03-14T09:00:04;94782.50;;;12.78;36.36
63097;BME280;49185;42.320;23.198;2023-03-14T09:02:30;94784.78;;;13.22;37.82
63097;BME280;49185;42.320;23.198;2023-03-14T09:04:55;94781.00;;;11.10;40.73
63097;BME280;49185;42.320;23.198;2023-03-14T09:07:21;94779.78;;;13.41;37.77
63097;BME280;49185;42.320;23.198;2023-03-14T09:09:46;94771.97;;;11.71;40.59
63097;BME280;49185;42.320;23.198;2023-03-14T09:12:12;94767.44;;;11.39;40.49
63097;BME280;49185;42.320;23.198;2023-03-14T09:14:37;94762.97;;;13.36;36.29
63097;BME280;49185;42.320;23.198;2023-03-14T09:17:04;94753.56;;;12.49;38.14
63097;BME280;49185;42.320;23.198;2023-03-14T09:19:29;94750.06;;;12.44;39.82
63097;BME280;49185;42.320;23.198;2023-03-14T09:21:55;94743.72;;;13.59;36.44
63097;BME280;49185;42.320;23.198;2023-03-14T09:24:21;94734.38;;;13.46;37.33
63097;BME280;49185;42.320;23.198;2023-03-14T09:26:46;94719.94;;;13.89;36.46
63097;BME280;49185;42.320;23.198;2023-03-14T09:29:12;94720.44;;;14.01;35.75
63097;BME280;49185;42.320;23.198;2023-03-14T09:31:37;94709.97;;;13.02;35.92
63097;BME280;49185;42.320;23.198;2023-03-14T09:34:03;94705.03;;;12.58;37.17
63097;BME280;49185;42.320;23.198;2023-03-14T09:36:28;94699.13;;;12.45;37.14
63097;BME280;49185;42.320;23.198;2023-03-14T09:38:54;94687.56;;;13.90;36.85
63097;BME280;49185;42.320;23.198;2023-03-14T09:41:29;94680.44;;;14.51;34.66
63097;BME280;49185;42.320;23.198;2023-03-14T09:44:05;94683.06;;;13.34;36.71
63097;BME280;49185;42.320;23.198;2023-03-14T09:46:35;94679.25;;;13.04;38.39
63097;BME280;49185;42.320;23.198;2023-03-14T09:49:02;94673.41;;;13.28;38.41
63097;BME280;49185;42.320;23.198;2023-03-14T09:51:29;94671.28;;;13.61;35.84
63097;BME280;49185;42.320;23.198;2023-03-14T09:53:54;94666.44;;;13.89;36.56
63097;BME280;49185;42.320;23.198;2023-03-14T09:56:26;94656.69;;;14.29;35.55
63097;BME280;49185;42.320;23.198;2023-03-14T09:59:03;94643.50;;;15.03;34.03
63097;BME280;49185;42.320;23.198;2023-03-14T10:01:31;94637.88;;;14.99;33.94
63097;BME280;49185;42.320;23.198;2023-03-14T10:04:01;94635.09;;;16.07;32.14
63097;BME280;49185;42.320;23.198;2023-03-14T10:06:30;94639.72;;;16.26;32.23
63097;BME280;49185;42.320;23.198;2023-03-14T10:08:56;94633.66;;;15.91;34.18
63097;BME280;49185;42.320;23.198;2023-03-14T10:11:22;94629.03;;;15.67;33.46
63097;BME280;49185;42.320;23.198;2023-03-14T10:14:08;94633.00;;;16.04;30.93
63097;BME280;49185;42.320;23.198;2023-03-14T10:16:37;94628.06;;;15.24;32.05
63097;BME280;49185;42.320;23.198;2023-03-14T10:19:09;94618.78;;;14.71;34.04
63097;BME280;49185;42.320;23.198;2023-03-14T10:21:40;94618.16;;;14.30;33.41
63097;BME280;49185;42.320;23.198;2023-03-14T10:24:22;94615.31;;;14.66;33.82
63097;BME280;49185;42.320;23.198;2023-03-14T10:26:49;94610.28;;;14.54;33.18
63097;BME280;49185;42.320;23.198;2023-03-14T10:29:17;94599.84;;;15.31;32.85
63097;BME280;49185;42.320;23.198;2023-03-14T10:31:52;94601.22;;;15.29;32.28
63097;BME280;49185;42.320;23.198;2023-03-14T10:34:24;94589.28;;;15.45;31.95
63097;BME280;49185;42.320;23.198;2023-03-14T10:36:59;94585.47;;;16.48;27.92
63097;BME280;49185;42.320;23.198;2023-03-14T10:39:35;94576.34;;;16.06;30.52
63097;BME280;49185;42.320;23.198;2023-03-14T10:42:13;94565.69;;;16.63;29.35
63097;BME280;49185;42.320;23.198;2023-03-14T10:44:41;94560.22;;;15.28;30.60
63097;BME280;49185;42.320;23.198;2023-03-14T10:47:19;94550.94;;;16.22;31.19
63097;BME280;49185;42.320;23.198;2023-03-14T10:49:46;94549.41;;;16.92;27.58
63097;BME280;49185;42.320;23.198;2023-03-14T10:52:20;94540.56;;;15.38;31.26
63097;BME280;49185;42.320;23.198;2023-03-14T10:55:00;94524.16;;;16.93;29.31
63097;BME280;49185;42.320;23.198;2023-03-14T10:57:26;94519.50;;;17.45;28.32
63097;BME280;49185;42.320;23.198;2023-03-14T10:59:54;94512.47;;;16.27;28.83
63097;BME280;49185;42.320;23.198;2023-03-14T11:07:40;94501.19;;;16.82;29.75
63097;BME280;49185;42.320;23.198;2023-03-14T11:10:38;94499.91;;;15.55;31.55
63097;BME280;49185;42.320;23.198;2023-03-14T11:18:56;94472.25;;;15.84;31.40
63097;BME280;49185;42.320;23.198;2023-03-14T11:21:46;94470.16;;;16.38;30.18
63097;BME280;49185;42.320;23.198;2023-03-14T11:29:42;94447.06;;;17.63;29.71
63097;BME280;49185;42.320;23.198;2023-03-14T11:32:36;94438.69;;;17.64;28.40
63097;BME280;49185;42.320;23.198;2023-03-14T11:35:37;94428.03;;;17.18;29.81
63097;BME280;49185;42.320;23.198;2023-03-14T11:40:41;94419.06;;;17.08;28.29
63097;BME280;49185;42.320;23.198;2023-03-14T11:43:20;94408.81;;;17.94;26.25
63097;BME280;49185;42.320;23.198;2023-03-14T11:45:48;94401.84;;;19.54;26.83
63097;BME280;49185;42.320;23.198;2023-03-14T11:51:02;94402.41;;;17.76;26.86
63097;BME280;49185;42.320;23.198;2023-03-14T11:56:02;94392.25;;;18.46;26.96
63097;BME280;49185;42.320;23.198;2023-03-14T11:58:35;94390.34;;;18.01;25.92
63097;BME280;49185;42.320;23.198;2023-03-14T12:01:09;94378.44;;;17.52;27.71
63097;BME280;49185;42.320;23.198;2023-03-14T12:03:45;94376.34;;;17.49;26.80
63097;BME280;49185;42.320;23.198;2023-03-14T12:08:43;94361.16;;;17.80;26.57
63097;BME280;49185;42.320;23.198;2023-03-14T12:11:19;94353.34;;;17.42;29.58
63097;BME280;49185;42.320;23.198;2023-03-14T12:13:49;94352.44;;;17.47;28.02
63097;BME280;49185;42.320;23.198;2023-03-14T12:16:35;94350.66;;;16.40;28.51
63097;BME280;49185;42.320;23.198;2023-03-14T12:19:40;94344.56;;;17.37;26.86
63097;BME280;49185;42.320;23.198;2023-03-14T12:22:31;94340.28;;;16.66;28.01
63097;BME280;49185;42.320;23.198;2023-03-14T12:25:13;94329.03;;;16.64;27.09
63097;BME280;49185;42.320;23.198;2023-03-14T12:30:18;94323.69;;;17.34;25.93
63097;BME280;49185;42.320;23.198;2023-03-14T12:35:44;94330.56;;;16.51;26.56
63097;BME280;49185;42.320;23.198;2023-03-14T12:38:16;94325.13;;;15.53;28.63
63097;BME280;49185;42.320;23.198;2023-03-14T12:43:44;94313.25;;;15.97;31.19
63097;BME280;49185;42.320;23.198;2023-03-14T12:46:26;94316.34;;;16.84;28.28
63097;BME280;49185;42.320;23.198;2023-03-14T12:51:38;94300.59;;;17.19;26.12
63097;BME280;49185;42.320;23.198;2023-03-14T12:57:15;94298.66;;;15.65;29.14
63097;BME280;49185;42.320;23.198;2023-03-14T12:59:50;94294.97;;;15.99;29.47
63097;BME280;49185;42.320;23.198;2023-03-14T13:15:29;94233.94;;;17.30;27.09
63097;BME280;49185;42.320;23.198;2023-03-14T13:18:01;94237.00;;;17.14;27.18
63097;BME280;49185;42.320;23.198;2023-03-14T13:20:41;94226.25;;;17.14;26.68
63097;BME280;49185;42.320;23.198;2023-03-14T13:23:27;94211.59;;;17.06;26.86
63097;BME280;49185;42.320;23.198;2023-03-14T13:25:53;94213.00;;;16.62;28.46
63097;BME280;49185;42.320;23.198;2023-03-14T13:28:20;94208.63;;;16.25;29.84
63097;BME280;49185;42.320;23.198;2023-03-14T13:30:48;94207.81;;;16.10;31.26
63097;BME280;49185;42.320;23.198;2023-03-14T13:33:20;94195.44;;;16.56;28.82
63097;BME280;49185;42.320;23.198;2023-03-14T13:36:00;94201.38;;;16.11;29.46
63097;BME280;49185;42.320;23.198;2023-03-14T13:38:28;94185.66;;;16.60;29.59
63097;BME280;49185;42.320;23.198;2023-03-14T13:40:55;94185.47;;;16.70;29.27
63097;BME280;49185;42.320;23.198;2023-03-14T13:43:41;94176.34;;;16.44;29.90
63097;BME280;49185;42.320;23.198;2023-03-14T13:46:22;94178.91;;;16.21;29.18
63097;BME280;49185;42.320;23.198;2023-03-14T13:48:50;94177.09;;;16.03;29.75
63097;BME280;49185;42.320;23.198;2023-03-14T13:51:19;94174.13;;;16.32;29.72
63097;BME280;49185;42.320;23.198;2023-03-14T13:53:50;94169.28;;;16.20;29.78